Swampscott, MA

12:23 PM EDT on April 28, 2015 (GMT -0400)
Beachhurst | | Change Station
CLOSE
Current Station
Personal Weather Station
Location: Swampscott, MA
Elevation: 45 ft
Nearby Weather Stations

Elev 45 ft 42.46 °N, 70.90 °W | Updated 1 second ago

Partly Cloudy
Partly Cloudy
--
Feels Like --
N
-
Wind Variable Wind from North

Today
High -- | Low -- °F
--% Chance of Precip.
Yesterday
High -- | Low -- °F
Precip. -- in
5:43 AM 7:39 PM
Waxing Gibbous, 74% visible
Pressure 29.72 in
Visibility 10.0 miles
Clouds Few 5000 ft
Dew Point Not available.
Humidity Not available.
Rainfall 0.00 in
Snow Depth Not available.
UV 9 out of 12
Pollen 10.40 out of 12
Air Quality Not available.
Flu Activity Widespread
METAR KBVY 281553Z 34010G20KT 10SM FEW050 12/00 A2972 RMK AO2 SLP062 T01220000

More Conditions Fewer Conditions

Pressure 29.72 in
Visibility 10.0 miles
Clouds Few 5000 ft
Dew Point Not available.
Humidity Not available.
Rainfall 0.00 in
Snow Depth Not available.
UV 9 out of 12
Pollen 10.40 out of 12
Air Quality Not available.
Flu Activity Widespread
METAR KBVY 281553Z 34010G20KT 10SM FEW050 12/00 A2972 RMK AO2 SLP062 T01220000

More Conditions Fewer Conditions

10-Day Weather Forecast

Almanac

Astronomy

Apr. 28, 2015 Rise Set
Actual Time
Civil Twilight
Nautical Twilight
Astronomical Twilight
Moon
Length of Visible Light
Length of Day
Tomorrow will be .
, % of the Moon is Illuminated

Today's Extremes

State Highs State Lows

Community

WunderPhotos

Upload Photos

1,817,691 photos uploaded!

WunderBlogs® & News

Nearby

Air Quality

  Air Quality AQ Index Pollutant
Not available.

Snow Depth

Station Depth Elevation

Earthquake Activity

City Distance Mag. Time & Date
Minimum magnitude displayed is 2.5.

Coastal Water Temperatures

Place Temperature

Stations

Nearby Weather Stations

Station Location Temp. Windchill Dew Point Humidity Wind Precip. Elev Updated Type